Capitol Logistics 457


KMSP
Minneapolis-St Paul International Airport
Minneapolis, Minnesota, US
KEWR
Newark Liberty International Airport
Newark, New Jersey, US

Activity Log

Date Flight Route Aircraft Duration
10/28/2019 CPX457 WLSTN7 GRB KEEHO J584 SLT FQM3 B738 3h 00m
07/19/2019 CPX457 ZMBRO7 ODI KG78K KG72M EVOTE NELLS KEEHO J584 SLT FQM3 B738 2h 29m

Route Details

Aircraft Information
Primary: Boeing 737-800BCF
Backup: Not Available
Route Data
Distance: 875nm
Sched. Duration: 2h 39m
Avg. Duration: 2h 64m (+25m)
Times Flown: 2
Recm'd Route: WLSTN7 GRB KEEHO J584 SLT FQM3
Planned Altitude: 35,000ft
Origin Wx: KMSP 181553Z 31011KT 10SM CLR M07/M13 A3026 RMK AO2 SLP260 T10721133
Dest. Wx: KEWR 181551Z 11008KT 10SM -RA BKN017 OVC026 08/03 A3025 RMK AO2 RAB51 SLP244 P0000 T00780033
Notes:

Financial History
Total Freight: 28,512lbs
Average Load: 14,256lbs/flt
Fuel Used: 20,948lbs
Avg. Fuel Used: 10,474lbs/flt
Fuel Expense: $25,347
Avg. Fuel Expense: $12,674
Avg. Fuel Cost: $1.21/lbs
Total Gross Income: $36,780
Pilot Pay: $458
Total Expenses: $4,076
Total Revenue: $6,067
Average Revenue: $18,390.24